createdAt,value
2023-02-14T00:00:48.014Z,91.78
2023-02-14T00:01:48.001Z,91.83
2023-02-14T00:02:48.054Z,91.93
2023-02-14T00:03:47.975Z,91.93
2023-02-14T00:04:48.022Z,91.93
2023-02-14T00:05:47.959Z,92.03
2023-02-14T00:06:47.939Z,92.14
2023-02-14T00:07:47.928Z,92.14
2023-02-14T00:08:47.922Z,92.14
2023-02-14T00:09:47.928Z,92.24
2023-02-14T00:10:47.909Z,92.24
2023-02-14T00:11:47.884Z,92.35
2023-02-14T00:12:47.876Z,92.35
2023-02-14T00:13:47.879Z,92.45
2023-02-14T00:14:47.881Z,92.45
2023-02-14T00:15:47.902Z,92.45
2023-02-14T00:16:47.841Z,92.45
2023-02-14T00:17:47.820Z,92.45
2023-02-14T00:18:47.838Z,92.45
2023-02-14T00:19:47.808Z,92.45
2023-02-14T00:20:47.822Z,92.45
2023-02-14T00:21:47.782Z,92.45
2023-02-14T00:22:47.772Z,92.55
2023-02-14T00:23:47.764Z,92.55
2023-02-14T00:24:47.742Z,92.55
2023-02-14T00:25:47.731Z,92.69
2023-02-14T00:26:47.754Z,92.66
2023-02-14T00:27:47.716Z,92.80
2023-02-14T00:28:47.724Z,92.80
2023-02-14T00:29:47.693Z,92.80
2023-02-14T00:30:47.714Z,92.80
2023-02-14T00:31:47.702Z,92.90
2023-02-14T00:32:47.674Z,92.90
2023-02-14T00:33:47.643Z,93.01
2023-02-14T00:34:47.645Z,93.01
2023-02-14T00:35:47.630Z,93.12
2023-02-14T00:36:47.623Z,93.12
2023-02-14T00:37:47.643Z,93.12
2023-02-14T00:38:47.592Z,93.16
2023-02-14T00:39:47.593Z,93.16
2023-02-14T00:40:47.573Z,93.26
2023-02-14T00:41:47.556Z,93.26
2023-02-14T00:42:47.578Z,93.37
2023-02-14T00:43:47.544Z,93.37
2023-02-14T00:44:47.516Z,93.37
2023-02-14T00:45:47.536Z,93.37
2023-02-14T00:46:47.522Z,93.47
2023-02-14T00:47:47.562Z,93.47
2023-02-14T00:48:47.486Z,93.57
2023-02-14T00:49:47.509Z,93.57
2023-02-14T00:50:47.456Z,93.57
2023-02-14T00:51:47.448Z,93.57
2023-02-14T00:52:47.453Z,93.57
2023-02-14T00:53:47.426Z,93.57
2023-02-14T00:54:47.420Z,93.68
2023-02-14T00:55:47.415Z,93.68
2023-02-14T00:56:47.427Z,93.68
2023-02-14T00:57:47.381Z,93.78
2023-02-14T00:58:47.420Z,93.78
2023-02-14T00:59:47.357Z,93.88
2023-02-14T01:00:47.406Z,93.99
2023-02-14T01:01:47.337Z,93.99
2023-02-14T01:02:47.415Z,93.99
2023-02-14T01:03:47.352Z,94.09
2023-02-14T01:04:47.311Z,94.09
2023-02-14T01:05:47.296Z,94.09
2023-02-14T01:06:47.302Z,94.09
2023-02-14T01:07:47.274Z,94.09
2023-02-14T01:08:47.267Z,94.09
2023-02-14T01:09:47.283Z,94.09
2023-02-14T01:10:47.273Z,94.13
2023-02-14T01:11:47.220Z,94.03
2023-02-14T01:12:47.258Z,94.03
2023-02-14T01:13:47.201Z,94.03
2023-02-14T01:14:47.204Z,94.03
2023-02-14T01:15:47.179Z,94.13
2023-02-14T01:16:47.206Z,94.13
2023-02-14T01:17:47.163Z,94.13
2023-02-14T01:18:47.195Z,94.13
2023-02-14T01:19:47.140Z,94.13
2023-02-14T01:20:47.150Z,94.13
2023-02-14T01:21:47.110Z,94.13
2023-02-14T01:22:47.112Z,94.13
2023-02-14T01:23:47.094Z,94.13
2023-02-14T01:24:47.122Z,94.13
2023-02-14T01:25:47.064Z,94.13
2023-02-14T01:26:47.067Z,94.03
2023-02-14T01:27:47.042Z,94.03
2023-02-14T01:28:47.046Z,93.93
2023-02-14T01:29:47.052Z,93.93
2023-02-14T01:30:47.125Z,93.82
2023-02-14T01:31:47.025Z,93.82
2023-02-14T01:32:47.012Z,93.82
2023-02-14T01:33:46.982Z,93.76
2023-02-14T01:34:46.976Z,93.76
2023-02-14T01:35:46.963Z,93.76
2023-02-14T01:36:46.995Z,93.76
2023-02-14T01:37:46.955Z,93.76
2023-02-14T01:38:46.948Z,93.87
2023-02-14T01:39:46.916Z,93.76
2023-02-14T01:40:46.941Z,93.87
2023-02-14T01:41:46.901Z,93.87
2023-02-14T01:42:46.887Z,93.97
2023-02-14T01:43:46.878Z,93.97
2023-02-14T01:44:46.888Z,93.97
2023-02-14T01:45:46.936Z,93.97
2023-02-14T01:46:46.861Z,93.97
2023-02-14T01:47:46.875Z,94.07
2023-02-14T01:48:46.830Z,94.07
2023-02-14T01:49:46.809Z,94.12
2023-02-14T01:50:46.814Z,94.07
2023-02-14T01:51:46.795Z,94.22
2023-02-14T01:52:46.825Z,94.22
2023-02-14T01:53:46.775Z,94.22
2023-02-14T01:54:46.771Z,94.22
2023-02-14T01:55:46.791Z,94.22
2023-02-14T01:56:46.742Z,94.22
2023-02-14T01:57:46.774Z,94.12
2023-02-14T01:58:46.722Z,94.12
2023-02-14T01:59:46.692Z,94.12
2023-02-14T02:00:46.748Z,94.12
2023-02-14T02:01:46.713Z,94.22
2023-02-14T02:02:46.702Z,94.22
2023-02-14T02:03:46.684Z,94.22
2023-02-14T02:04:46.692Z,94.22
2023-02-14T02:05:46.665Z,94.32
2023-02-14T02:06:46.655Z,94.32
2023-02-14T02:07:46.624Z,94.32
2023-02-14T02:08:46.645Z,94.32
2023-02-14T02:09:46.625Z,94.43
2023-02-14T02:10:46.596Z,94.43
2023-02-14T02:11:46.600Z,94.43
2023-02-14T02:12:46.580Z,94.43
2023-02-14T02:13:46.564Z,94.43
2023-02-14T02:14:46.575Z,94.47
2023-02-14T02:15:46.535Z,94.57
2023-02-14T02:16:46.639Z,94.57
2023-02-14T02:17:46.516Z,94.57
2023-02-14T02:18:46.522Z,94.68
2023-02-14T02:19:46.519Z,94.68
2023-02-14T02:20:46.513Z,94.78
2023-02-14T02:21:46.498Z,94.78
2023-02-14T02:22:46.493Z,94.78
2023-02-14T02:23:46.447Z,94.89
2023-02-14T02:24:46.433Z,94.89
2023-02-14T02:25:46.426Z,94.99
2023-02-14T02:26:46.437Z,94.99
2023-02-14T02:27:46.411Z,94.99
2023-02-14T02:28:46.406Z,95.03
2023-02-14T02:29:46.387Z,95.03
2023-02-14T02:30:46.465Z,95.14
2023-02-14T02:31:46.489Z,95.14
2023-02-14T02:32:46.350Z,95.25
2023-02-14T02:33:46.348Z,95.25
2023-02-14T02:34:46.321Z,95.25
2023-02-14T02:35:46.507Z,95.35
2023-02-14T02:36:46.304Z,95.45
2023-02-14T02:37:46.314Z,95.45
2023-02-14T02:38:46.287Z,95.56
2023-02-14T02:39:46.279Z,95.56
2023-02-14T02:40:46.264Z,95.56
2023-02-14T02:41:46.270Z,95.56
2023-02-14T02:42:46.240Z,95.66
2023-02-14T02:43:46.256Z,95.66
2023-02-14T02:44:46.211Z,95.66
2023-02-14T02:45:46.234Z,95.56
2023-02-14T02:46:46.191Z,95.56
2023-02-14T02:47:46.186Z,95.56
2023-02-14T02:48:46.211Z,95.45
2023-02-14T02:49:46.346Z,95.45
2023-02-14T02:50:46.159Z,95.35
2023-02-14T02:51:46.140Z,95.25
2023-02-14T02:52:46.138Z,95.29
2023-02-14T02:53:46.137Z,95.29
2023-02-14T02:54:46.132Z,95.18
2023-02-14T02:55:46.117Z,95.18
2023-02-14T02:56:46.179Z,95.18
2023-02-14T02:57:46.079Z,95.18
2023-02-14T02:58:46.068Z,95.18
2023-02-14T02:59:46.063Z,95.29
2023-02-14T03:00:46.087Z,95.29
2023-02-14T03:01:46.064Z,95.29
2023-02-14T03:02:46.021Z,95.29
2023-02-14T03:03:46.023Z,95.29
2023-02-14T03:04:46.038Z,95.29
2023-02-14T03:05:45.996Z,95.29
2023-02-14T03:06:46.005Z,95.39
2023-02-14T03:07:45.975Z,95.29
2023-02-14T03:08:45.954Z,95.39
2023-02-14T03:09:45.965Z,95.39
2023-02-14T03:10:45.934Z,95.39
2023-02-14T03:11:45.927Z,95.39
2023-02-14T03:12:45.914Z,95.39
2023-02-14T03:13:45.920Z,95.43
2023-02-14T03:14:45.886Z,95.43
2023-02-14T03:15:49.949Z,95.43
2023-02-14T03:16:45.875Z,95.43
2023-02-14T03:17:45.892Z,95.43
2023-02-14T03:18:45.876Z,95.43
2023-02-14T03:19:45.836Z,95.54
2023-02-14T03:20:45.824Z,95.54
2023-02-14T03:21:45.838Z,95.54
2023-02-14T03:22:45.818Z,95.54
2023-02-14T03:23:45.826Z,95.54
2023-02-14T03:24:45.830Z,95.54
2023-02-14T03:25:45.790Z,95.54
2023-02-14T03:26:45.751Z,95.54
2023-02-14T03:27:46.047Z,95.54
2023-02-14T03:28:45.742Z,95.54
2023-02-14T03:29:45.730Z,95.54
2023-02-14T03:30:45.858Z,95.54
2023-02-14T03:31:45.788Z,95.54
2023-02-14T03:32:45.729Z,95.64
2023-02-14T03:33:45.679Z,95.64
2023-02-14T03:34:45.670Z,95.64
2023-02-14T03:35:45.673Z,95.64
2023-02-14T03:36:47.120Z,95.64
2023-02-14T03:37:45.688Z,95.75
2023-02-14T03:38:45.650Z,95.75
2023-02-14T03:39:45.626Z,95.75
2023-02-14T03:40:45.621Z,95.75
2023-02-14T03:41:45.704Z,95.75
2023-02-14T03:42:46.541Z,95.85
2023-02-14T03:43:45.614Z,95.85
2023-02-14T03:44:45.873Z,95.85
2023-02-14T03:45:45.560Z,95.85
2023-02-14T03:46:45.595Z,95.85
2023-02-14T03:47:45.532Z,95.85
2023-02-14T03:48:45.513Z,95.95
2023-02-14T03:49:45.562Z,95.95
2023-02-14T03:50:45.496Z,95.95
2023-02-14T03:51:46.457Z,95.95
2023-02-14T03:52:45.481Z,95.95
2023-02-14T03:53:45.462Z,95.85
2023-02-14T03:54:45.443Z,95.85
2023-02-14T03:55:45.473Z,95.85
2023-02-14T03:56:45.455Z,95.85
2023-02-14T03:57:45.419Z,95.85
2023-02-14T03:58:45.425Z,95.85
2023-02-14T03:59:45.415Z,95.85
2023-02-14T04:00:45.383Z,95.85
2023-02-14T04:01:45.465Z,95.75
2023-02-14T04:02:45.355Z,95.75
2023-02-14T04:03:45.406Z,95.75
2023-02-14T04:04:45.364Z,95.75
2023-02-14T04:05:45.333Z,95.60
2023-02-14T04:06:45.339Z,95.60
2023-02-14T04:07:45.313Z,95.64
2023-02-14T04:08:45.295Z,95.60
2023-02-14T04:09:45.339Z,95.60
2023-02-14T04:10:45.274Z,95.60
2023-02-14T04:11:45.273Z,95.50
2023-02-14T04:12:45.250Z,95.50
2023-02-14T04:13:45.248Z,95.50
2023-02-14T04:14:45.232Z,95.50
2023-02-14T04:15:45.269Z,95.50
2023-02-14T04:16:45.235Z,95.39
2023-02-14T04:17:45.195Z,95.39
2023-02-14T04:18:45.198Z,95.39
2023-02-14T04:19:45.191Z,95.39
2023-02-14T04:20:45.166Z,95.39
2023-02-14T04:21:45.171Z,95.39
2023-02-14T04:22:45.175Z,95.29
2023-02-14T04:23:45.138Z,95.33
2023-02-14T04:24:45.147Z,95.33
2023-02-14T04:25:45.175Z,95.33
2023-02-14T04:26:45.103Z,95.43
2023-02-14T04:27:45.087Z,95.43
2023-02-14T04:28:45.085Z,95.43
2023-02-14T04:29:45.057Z,95.43
2023-02-14T04:30:45.077Z,95.43
2023-02-14T04:31:45.139Z,95.43
2023-02-14T04:32:45.056Z,95.43
2023-02-14T04:33:45.049Z,95.43
2023-02-14T04:34:45.009Z,95.43
2023-02-14T04:35:45.004Z,95.43
2023-02-14T04:36:45.009Z,95.43
2023-02-14T04:37:44.974Z,95.54
2023-02-14T04:38:44.960Z,95.54
2023-02-14T04:39:44.963Z,95.54
2023-02-14T04:40:44.968Z,95.54
2023-02-14T04:41:44.937Z,95.54
2023-02-14T04:42:44.940Z,95.54
2023-02-14T04:43:44.908Z,95.54
2023-02-14T04:44:44.952Z,95.54
2023-02-14T04:45:44.921Z,95.54
2023-02-14T04:46:44.972Z,95.54
2023-02-14T04:47:45.480Z,95.43
2023-02-14T04:48:44.857Z,95.43
2023-02-14T04:49:45.825Z,95.43
2023-02-14T04:50:44.866Z,95.43
2023-02-14T04:51:44.837Z,95.43
2023-02-14T04:52:44.817Z,95.43
2023-02-14T04:53:44.822Z,95.43
2023-02-14T04:54:44.781Z,95.54
2023-02-14T04:55:44.778Z,95.54
2023-02-14T04:56:44.761Z,95.54
2023-02-14T04:57:44.749Z,95.64
2023-02-14T04:58:44.760Z,95.64
2023-02-14T04:59:44.741Z,95.54
2023-02-14T05:00:44.780Z,95.54
2023-02-14T05:01:44.774Z,95.54
2023-02-14T05:02:44.697Z,95.54
2023-02-14T05:03:44.745Z,95.48
2023-02-14T05:04:44.668Z,95.48
2023-02-14T05:05:44.691Z,95.48
2023-02-14T05:06:44.652Z,95.48
2023-02-14T05:07:45.621Z,95.37
2023-02-14T05:08:44.630Z,95.48
2023-02-14T05:09:44.646Z,95.48
2023-02-14T05:10:44.640Z,95.48
2023-02-14T05:11:44.603Z,95.48
2023-02-14T05:12:44.647Z,95.48
2023-02-14T05:13:44.593Z,95.48
2023-02-14T05:14:44.560Z,95.58
2023-02-14T05:15:44.581Z,95.58
2023-02-14T05:16:44.621Z,95.58
2023-02-14T05:17:44.529Z,95.58
2023-02-14T05:18:44.520Z,95.58
2023-02-14T05:19:44.534Z,95.58
2023-02-14T05:20:44.498Z,95.58
2023-02-14T05:21:44.522Z,95.58
2023-02-14T05:22:44.486Z,95.68
2023-02-14T05:23:44.471Z,95.68
2023-02-14T05:24:44.456Z,95.68
2023-02-14T05:25:45.454Z,95.68
2023-02-14T05:26:44.434Z,95.79
2023-02-14T05:27:44.428Z,95.79
2023-02-14T05:28:44.419Z,95.85
2023-02-14T05:29:44.406Z,95.85
2023-02-14T05:30:45.371Z,95.75
2023-02-14T05:31:44.415Z,95.85
2023-02-14T05:32:44.366Z,95.85
2023-02-14T05:33:44.412Z,95.75
2023-02-14T05:34:44.451Z,95.75
2023-02-14T05:35:44.338Z,95.79
2023-02-14T05:36:44.323Z,95.79
2023-02-14T05:37:44.316Z,95.79
2023-02-14T05:38:44.306Z,95.79
2023-02-14T05:39:44.509Z,95.89
2023-02-14T05:40:44.299Z,95.89
2023-02-14T05:41:44.265Z,95.89
2023-02-14T05:42:44.263Z,95.89
2023-02-14T05:43:44.243Z,95.89
2023-02-14T05:44:44.249Z,95.89
2023-02-14T05:45:44.369Z,95.89
2023-02-14T05:46:44.493Z,95.79
2023-02-14T05:47:44.228Z,95.79
2023-02-14T05:48:44.223Z,95.79
2023-02-14T05:49:44.192Z,95.79
2023-02-14T05:50:44.175Z,95.79
2023-02-14T05:51:44.162Z,95.79
2023-02-14T05:52:44.157Z,95.79
2023-02-14T05:53:44.145Z,95.68
2023-02-14T05:54:44.117Z,95.68
2023-02-14T05:55:44.431Z,95.68
2023-02-14T05:56:44.119Z,95.68
2023-02-14T05:57:44.121Z,95.79
2023-02-14T05:58:44.070Z,95.79
2023-02-14T05:59:44.883Z,95.79
2023-02-14T06:00:44.844Z,95.79
2023-02-14T06:01:44.113Z,95.79
2023-02-14T06:02:44.371Z,95.79
2023-02-14T06:03:44.034Z,95.89
2023-02-14T06:04:44.050Z,95.89
2023-02-14T06:05:44.024Z,95.89
2023-02-14T06:06:44.004Z,95.89
2023-02-14T06:07:44.989Z,96.00
2023-02-14T06:08:44.177Z,96.11
2023-02-14T06:09:43.976Z,96.11
2023-02-14T06:10:43.976Z,96.21
2023-02-14T06:11:44.069Z,96.21
2023-02-14T06:12:43.927Z,96.21
2023-02-14T06:13:44.218Z,96.21
2023-02-14T06:14:43.908Z,96.21
2023-02-14T06:15:43.920Z,96.21
2023-02-14T06:16:43.962Z,96.21
2023-02-14T06:17:43.884Z,96.21
2023-02-14T06:18:43.866Z,96.21
2023-02-14T06:19:43.872Z,96.31
2023-02-14T06:20:43.856Z,96.31
2023-02-14T06:21:43.934Z,96.31
2023-02-14T06:22:43.862Z,96.31
2023-02-14T06:23:43.857Z,96.31
2023-02-14T06:24:43.870Z,96.42
2023-02-14T06:25:43.874Z,96.42
2023-02-14T06:26:43.803Z,96.31
2023-02-14T06:27:43.776Z,96.31
2023-02-14T06:28:43.757Z,96.31
2023-02-14T06:29:43.899Z,96.42
2023-02-14T06:30:44.023Z,96.42
2023-02-14T06:31:43.789Z,96.52
2023-02-14T06:32:43.898Z,96.52
2023-02-14T06:33:45.151Z,96.69
2023-02-14T06:34:43.730Z,96.79
2023-02-14T06:35:43.911Z,96.89
2023-02-14T06:36:44.625Z,97.06
2023-02-14T06:37:43.657Z,97.06
2023-02-14T06:38:43.654Z,97.06
2023-02-14T06:39:44.800Z,97.16
2023-02-14T06:40:43.666Z,97.16
2023-02-14T06:41:43.623Z,97.06
2023-02-14T06:42:43.609Z,97.16
2023-02-14T06:43:43.600Z,97.16
2023-02-14T06:44:43.593Z,97.16
2023-02-14T06:45:44.500Z,97.16
2023-02-14T06:46:43.586Z,97.16
2023-02-14T06:47:43.553Z,97.16
2023-02-14T06:48:43.561Z,97.16
2023-02-14T06:49:43.536Z,97.22
2023-02-14T06:50:43.522Z,97.22
2023-02-14T06:51:43.513Z,97.22
2023-02-14T06:52:43.542Z,97.33
2023-02-14T06:53:43.484Z,97.33
2023-02-14T06:54:43.514Z,97.38
2023-02-14T06:55:43.969Z,97.59
2023-02-14T06:56:43.449Z,97.59
2023-02-14T06:57:43.455Z,97.55
2023-02-14T06:58:43.437Z,97.65
2023-02-14T06:59:44.363Z,97.75
2023-02-14T07:00:43.443Z,97.75
2023-02-14T07:01:43.494Z,97.86
2023-02-14T07:02:43.488Z,97.86
2023-02-14T07:03:43.530Z,97.81
2023-02-14T07:04:43.384Z,97.81
2023-02-14T07:05:43.353Z,97.81
2023-02-14T07:06:43.351Z,97.92
2023-02-14T07:07:43.351Z,97.92
2023-02-14T07:08:43.320Z,97.92
2023-02-14T07:09:43.347Z,97.92
2023-02-14T07:10:43.304Z,97.92
2023-02-14T07:11:43.285Z,97.92
2023-02-14T07:12:44.239Z,97.92
2023-02-14T07:13:43.264Z,97.92
2023-02-14T07:14:43.275Z,97.88
2023-02-14T07:15:43.311Z,97.88
2023-02-14T07:16:43.225Z,97.77
2023-02-14T07:17:43.258Z,97.77
2023-02-14T07:18:43.224Z,97.77
2023-02-14T07:19:43.196Z,97.77
2023-02-14T07:20:43.191Z,97.77
2023-02-14T07:21:43.215Z,97.67
2023-02-14T07:22:43.169Z,97.67
2023-02-14T07:23:43.168Z,97.67
2023-02-14T07:24:43.194Z,97.62
2023-02-14T07:25:43.135Z,97.52
2023-02-14T07:26:43.147Z,97.52
2023-02-14T07:27:43.134Z,97.41
2023-02-14T07:28:45.154Z,97.41
2023-02-14T07:29:43.126Z,97.41
2023-02-14T07:30:43.112Z,97.31
2023-02-14T07:31:43.176Z,97.31
2023-02-14T07:32:43.072Z,97.31
2023-02-14T07:33:43.457Z,97.31
2023-02-14T07:34:43.043Z,97.27
2023-02-14T07:35:43.078Z,97.27
2023-02-14T07:36:43.019Z,97.16
2023-02-14T07:37:43.014Z,97.16
2023-02-14T07:38:43.004Z,97.06
2023-02-14T07:39:42.980Z,97.06
2023-02-14T07:40:42.980Z,97.02
2023-02-14T07:41:42.991Z,96.91
2023-02-14T07:42:42.985Z,96.91
2023-02-14T07:43:42.929Z,96.81
2023-02-14T07:44:42.955Z,96.81
2023-02-14T07:45:42.921Z,96.66
2023-02-14T07:46:42.934Z,96.55
2023-02-14T07:47:42.890Z,96.45
2023-02-14T07:48:42.895Z,96.34
2023-02-14T07:49:42.883Z,96.34
2023-02-14T07:50:42.907Z,96.24
2023-02-14T07:51:42.844Z,96.03
2023-02-14T07:52:42.853Z,95.99
2023-02-14T07:53:42.827Z,95.89
2023-02-14T07:54:42.827Z,95.78
2023-02-14T07:55:42.801Z,95.68
2023-02-14T07:56:42.827Z,95.57
2023-02-14T07:57:42.784Z,95.43
2023-02-14T07:58:42.783Z,95.32
2023-02-14T07:59:42.751Z,95.22
2023-02-14T08:00:42.756Z,95.12
2023-02-14T08:01:42.797Z,95.01
2023-02-14T08:02:42.729Z,94.81
2023-02-14T08:03:42.714Z,94.70
2023-02-14T08:04:42.728Z,94.56
2023-02-14T08:05:42.731Z,94.45
2023-02-14T08:06:42.718Z,94.35
2023-02-14T08:07:42.674Z,94.14
2023-02-14T08:08:42.668Z,94.04
2023-02-14T08:09:42.645Z,93.89
2023-02-14T08:10:42.674Z,93.68
2023-02-14T08:11:42.644Z,93.58
2023-02-14T08:12:42.632Z,93.33
2023-02-14T08:13:42.596Z,93.12
2023-02-14T08:14:42.590Z,92.91
2023-02-14T08:15:42.620Z,92.61
2023-02-14T08:16:42.605Z,92.40
2023-02-14T08:17:42.554Z,92.30
2023-02-14T08:18:42.557Z,92.19
2023-02-14T08:19:42.562Z,92.05
2023-02-14T08:20:42.522Z,91.84
2023-02-14T08:21:42.540Z,91.63
2023-02-14T08:22:42.524Z,91.53
2023-02-14T08:23:42.492Z,91.32
2023-02-14T08:24:42.480Z,91.22
2023-02-14T08:25:42.495Z,91.11
2023-02-14T08:26:42.501Z,90.97
2023-02-14T08:27:42.444Z,90.87
2023-02-14T08:28:43.386Z,90.77
2023-02-14T08:29:42.423Z,90.66
2023-02-14T08:30:42.422Z,90.45
2023-02-14T08:31:42.477Z,90.25
2023-02-14T08:32:42.423Z,90.04
2023-02-14T08:33:43.328Z,89.89
2023-02-14T08:34:42.362Z,89.79
2023-02-14T08:35:42.381Z,89.69
2023-02-14T08:36:42.362Z,89.48
2023-02-14T08:37:42.379Z,89.28
2023-02-14T08:38:42.322Z,89.03
2023-02-14T08:39:42.318Z,88.92
2023-02-14T08:40:42.303Z,88.82
2023-02-14T08:41:42.302Z,88.92
2023-02-14T08:42:43.234Z,88.92
2023-02-14T08:43:42.305Z,88.82
2023-02-14T08:44:42.269Z,88.61
2023-02-14T08:45:42.270Z,88.31
2023-02-14T08:46:42.331Z,88.10
2023-02-14T08:47:42.263Z,87.95
2023-02-14T08:48:42.247Z,87.85
2023-02-14T08:49:42.197Z,87.65
2023-02-14T08:50:42.209Z,87.65
2023-02-14T08:51:42.216Z,87.95
2023-02-14T08:52:42.185Z,87.81
2023-02-14T08:53:42.207Z,87.71
2023-02-14T08:54:42.157Z,87.60
2023-02-14T08:55:42.161Z,87.40
2023-02-14T08:56:42.212Z,87.08
2023-02-14T08:57:42.149Z,86.88
2023-02-14T08:58:42.180Z,86.78
2023-02-14T08:59:42.146Z,86.63
2023-02-14T09:00:42.132Z,86.53
2023-02-14T09:01:43.086Z,86.32
2023-02-14T09:02:42.058Z,86.12
2023-02-14T09:03:42.112Z,86.02
2023-02-14T09:04:42.032Z,85.91
2023-02-14T09:05:42.023Z,85.81
2023-02-14T09:06:42.122Z,85.71
2023-02-14T09:07:42.034Z,85.46
2023-02-14T09:08:42.013Z,85.36
2023-02-14T09:09:42.019Z,85.15
2023-02-14T09:10:42.011Z,84.94
2023-02-14T09:11:41.951Z,84.84
2023-02-14T09:12:41.942Z,84.94
2023-02-14T09:13:41.958Z,84.84
2023-02-14T09:14:41.952Z,84.70
2023-02-14T09:15:41.931Z,84.70
2023-02-14T09:16:41.972Z,84.39
2023-02-14T09:17:41.919Z,83.98
2023-02-14T09:18:42.394Z,84.08
2023-02-14T09:19:41.908Z,83.87
2023-02-14T09:20:41.912Z,83.67
2023-02-14T09:21:41.914Z,83.56
2023-02-14T09:22:41.851Z,83.32
2023-02-14T09:23:41.830Z,83.42
2023-02-14T09:24:41.836Z,83.53
2023-02-14T09:25:41.799Z,83.32
2023-02-14T09:26:41.821Z,82.91
2023-02-14T09:27:41.817Z,82.60
2023-02-14T09:28:41.822Z,82.60
2023-02-14T09:29:41.756Z,83.07
2023-02-14T09:30:41.757Z,83.39
2023-02-14T09:31:41.850Z,83.18
2023-02-14T09:32:41.738Z,82.97
2023-02-14T09:33:41.754Z,82.87
2023-02-14T09:34:41.705Z,82.77
2023-02-14T09:35:41.702Z,82.97
2023-02-14T09:36:41.701Z,82.77
2023-02-14T09:37:41.730Z,82.73
2023-02-14T09:38:41.661Z,82.63
2023-02-14T09:39:41.703Z,82.42
2023-02-14T09:40:41.645Z,82.01
2023-02-14T09:41:41.628Z,81.70
2023-02-14T09:42:41.616Z,81.39
2023-02-14T09:43:41.633Z,81.29
2023-02-14T09:44:41.600Z,81.29
2023-02-14T09:45:41.638Z,81.19
2023-02-14T09:46:41.581Z,81.35
2023-02-14T09:47:41.560Z,81.46
2023-02-14T09:48:41.570Z,81.15
2023-02-14T09:49:41.629Z,80.84
2023-02-14T09:50:42.337Z,80.53
2023-02-14T09:51:41.826Z,80.33
2023-02-14T09:52:41.531Z,80.12
2023-02-14T09:53:41.519Z,80.53
2023-02-14T09:54:41.481Z,80.33
2023-02-14T09:55:41.479Z,80.33
2023-02-14T09:56:50.586Z,80.43
2023-02-14T09:57:43.429Z,80.60
2023-02-14T09:58:41.506Z,80.60
2023-02-14T09:59:41.441Z,80.70
2023-02-14T10:00:41.500Z,80.60
2023-02-14T10:01:41.418Z,80.29
2023-02-14T10:02:41.410Z,79.88
2023-02-14T10:03:41.434Z,79.98
2023-02-14T10:04:41.414Z,80.39
2023-02-14T10:05:41.414Z,80.49
2023-02-14T10:06:41.545Z,80.29
2023-02-14T10:07:41.369Z,79.88
2023-02-14T10:08:41.383Z,79.47
2023-02-14T10:09:41.370Z,79.77
2023-02-14T10:10:41.314Z,79.53
2023-02-14T10:11:41.294Z,79.63
2023-02-14T10:12:41.300Z,78.92
2023-02-14T10:13:41.309Z,78.20
2023-02-14T10:14:41.266Z,78.50
2023-02-14T10:15:41.256Z,78.81
2023-02-14T10:16:41.265Z,78.92
2023-02-14T10:17:41.245Z,78.40
2023-02-14T10:18:41.233Z,78.20
2023-02-14T10:19:41.241Z,78.30
2023-02-14T10:20:41.214Z,78.30
2023-02-14T10:21:41.197Z,78.30
2023-02-14T10:22:41.951Z,78.61
2023-02-14T10:23:41.165Z,78.57
2023-02-14T10:24:41.166Z,78.06
2023-02-14T10:25:41.165Z,77.75
2023-02-14T10:26:41.244Z,77.23
2023-02-14T10:27:41.127Z,77.55
2023-02-14T10:28:41.141Z,77.85
2023-02-14T10:29:41.090Z,77.85
2023-02-14T10:30:41.164Z,77.44
2023-02-14T10:31:42.084Z,77.85
2023-02-14T10:32:42.037Z,77.92
2023-02-14T10:33:41.077Z,78.23
2023-02-14T10:34:41.253Z,77.81
2023-02-14T10:35:41.978Z,77.40
2023-02-14T10:36:41.028Z,77.20
2023-02-14T10:37:41.046Z,77.30
2023-02-14T10:38:41.001Z,77.30
2023-02-14T10:39:41.016Z,77.10
2023-02-14T10:40:41.062Z,77.30
2023-02-14T10:41:40.995Z,77.68
2023-02-14T10:42:40.951Z,77.58
2023-02-14T10:43:40.986Z,76.96
2023-02-14T10:44:40.988Z,77.26
2023-02-14T10:45:40.973Z,77.47
2023-02-14T10:46:40.945Z,77.68
2023-02-14T10:47:40.905Z,77.78
2023-02-14T10:48:40.906Z,77.88
2023-02-14T10:49:40.886Z,77.17
2023-02-14T10:50:40.884Z,76.72
2023-02-14T10:51:41.004Z,76.62
2023-02-14T10:52:40.847Z,76.51
2023-02-14T10:53:40.840Z,76.51
2023-02-14T10:54:40.834Z,76.00
2023-02-14T10:55:40.826Z,75.59
2023-02-14T10:56:40.901Z,75.18
2023-02-14T10:57:40.804Z,75.28
2023-02-14T10:58:40.791Z,75.28
2023-02-14T10:59:40.778Z,75.08
2023-02-14T11:00:42.227Z,74.84
2023-02-14T11:01:40.816Z,74.73
2023-02-14T11:02:40.955Z,74.84
2023-02-14T11:03:43.773Z,75.15
2023-02-14T11:04:40.710Z,75.45
2023-02-14T11:05:42.820Z,75.24
2023-02-14T11:06:41.140Z,74.63
2023-02-14T11:07:40.693Z,74.80
2023-02-14T11:08:40.863Z,75.11
2023-02-14T11:09:40.668Z,74.60
2023-02-14T11:10:40.655Z,74.39
2023-02-14T11:11:40.766Z,74.60
2023-02-14T11:12:40.624Z,74.19
2023-02-14T11:13:40.675Z,74.08
2023-02-14T11:14:40.766Z,73.88
2023-02-14T11:15:40.599Z,73.78
2023-02-14T11:16:42.086Z,74.08
2023-02-14T11:17:42.048Z,74.60
2023-02-14T11:18:42.034Z,74.46
2023-02-14T11:19:40.577Z,74.05
2023-02-14T11:20:40.674Z,73.95
2023-02-14T11:21:40.562Z,73.64
2023-02-14T11:22:40.712Z,74.26
2023-02-14T11:23:40.530Z,73.74
2023-02-14T11:24:41.299Z,73.33
2023-02-14T11:25:40.623Z,72.89
2023-02-14T11:26:40.489Z,73.30
2023-02-14T11:27:40.561Z,72.58
2023-02-14T11:28:42.144Z,71.97
2023-02-14T11:29:40.487Z,71.86
2023-02-14T11:30:41.940Z,71.45
2023-02-14T11:31:41.032Z,71.36
2023-02-14T11:32:40.495Z,70.94
2023-02-14T11:33:40.430Z,70.74
2023-02-14T11:34:40.414Z,70.74
2023-02-14T11:35:40.504Z,70.74
2023-02-14T11:36:40.367Z,71.04
2023-02-14T11:37:40.364Z,71.53
2023-02-14T11:38:41.319Z,71.42
2023-02-14T11:39:41.900Z,70.61
2023-02-14T11:40:40.358Z,70.40
2023-02-14T11:41:41.134Z,70.67
2023-02-14T11:42:40.578Z,70.16
2023-02-14T11:43:40.343Z,69.55
2023-02-14T11:44:40.609Z,69.85
2023-02-14T11:45:40.291Z,69.96
2023-02-14T11:46:52.242Z,70.37
2023-02-14T11:47:41.361Z,70.37
2023-02-14T11:48:40.284Z,70.47
2023-02-14T11:49:40.223Z,70.26
2023-02-14T11:50:40.213Z,70.06
2023-02-14T11:51:40.401Z,70.16
2023-02-14T11:52:40.366Z,69.75
2023-02-14T11:53:40.424Z,69.96
2023-02-14T11:54:40.155Z,70.03
2023-02-14T11:55:41.105Z,70.23
2023-02-14T11:56:40.163Z,70.13
2023-02-14T11:57:40.138Z,70.23
2023-02-14T11:58:40.573Z,70.23
2023-02-14T11:59:40.434Z,70.23
2023-02-14T12:00:40.087Z,70.71
2023-02-14T12:01:40.085Z,70.61
2023-02-14T12:02:40.721Z,70.10
2023-02-14T12:03:41.066Z,68.66
2023-02-14T12:04:46.315Z,67.75
2023-02-14T12:05:41.057Z,67.54
2023-02-14T12:06:40.029Z,67.54
2023-02-14T12:07:40.976Z,67.85
2023-02-14T12:08:40.054Z,67.85
2023-02-14T12:09:40.040Z,67.95
2023-02-14T12:10:40.158Z,68.26
2023-02-14T12:11:39.980Z,68.05
2023-02-14T12:12:39.975Z,67.85
2023-02-14T12:13:40.004Z,68.16
2023-02-14T12:14:39.954Z,67.54
2023-02-14T12:15:39.992Z,67.34
2023-02-14T12:16:39.939Z,67.24
2023-02-14T12:17:39.952Z,67.65
2023-02-14T12:18:39.940Z,67.75
2023-02-14T12:19:39.876Z,67.54
2023-02-14T12:20:39.872Z,67.51
2023-02-14T12:21:39.864Z,67.71
2023-02-14T12:22:39.927Z,68.12
2023-02-14T12:23:39.872Z,67.30
2023-02-14T12:24:39.845Z,66.59
2023-02-14T12:25:39.863Z,66.18
2023-02-14T12:26:39.803Z,66.05
2023-02-14T12:27:39.836Z,66.15
2023-02-14T12:28:39.800Z,66.33
2023-02-14T12:29:39.798Z,65.92
2023-02-14T12:30:39.792Z,66.30
2023-02-14T12:31:39.911Z,65.99
2023-02-14T12:32:39.753Z,65.95
2023-02-14T12:33:39.744Z,64.84
2023-02-14T12:34:39.723Z,64.32
2023-02-14T12:35:39.716Z,63.41
2023-02-14T12:36:39.745Z,63.31
2023-02-14T12:37:39.702Z,63.10
2023-02-14T12:38:39.675Z,63.10
2023-02-14T12:39:39.661Z,63.31
2023-02-14T12:40:39.662Z,63.38
2023-02-14T12:41:39.655Z,63.56
2023-02-14T12:42:39.622Z,62.94
2023-02-14T12:43:39.648Z,62.61
2023-02-14T12:44:39.640Z,61.87
2023-02-14T12:45:39.601Z,61.63
2023-02-14T12:46:39.601Z,61.40
2023-02-14T12:47:40.546Z,60.97
2023-02-14T12:48:39.624Z,60.43
2023-02-14T12:49:39.605Z,59.72
2023-02-14T12:50:39.559Z,58.98
2023-02-14T12:51:39.599Z,58.27
2023-02-14T12:52:40.506Z,58.27